Time;durP1;ratioP1;P1;durP2;ratioP2;P2;SDS_P1;SDS_P2;PMS_P1;PMS_P2;Temp;Humidity;BMP_temperature;BMP_pressure;BME280_temperature;BME280_humidity;BME280_pressure;Samples;Min_cycle;Max_cycle;Signal;HPM_P1;HPM_P2
2021/12/16 00:09:48;33764.00;0.11;59.10;0.00;0.00;0.62;;;;;10.80;1.00;;;;;;2256189;61;1436;-89
2021/12/16 00:31:16;87736.00;0.29;152.40;0.00;0.00;0.62;;;;;9.40;1.00;;;;;;2282619;60;1431;-82
2021/12/16 00:33:45;126227.00;0.42;218.82;0.00;0.00;0.62;;;;;9.60;1.00;;;;;;2280699;60;977;-84
2021/12/16 00:36:14;354631.00;1.18;611.82;0.00;0.00;0.62;;;;;9.70;1.00;;;;;;2268365;61;1916;-85
2021/12/16 00:38:44;123937.00;0.41;214.87;0.00;0.00;0.62;;;;;9.10;1.00;;;;;;2268248;61;943;-84
2021/12/16 00:56:00;69726.00;0.23;121.29;0.00;0.00;0.62;;;;;10.70;1.00;;;;;;2285788;60;1961;-84
2021/12/16 01:01:03;190209.00;0.63;329.07;0.00;0.00;0.62;;;;;10.90;1.00;;;;;;2282928;61;1282;-86
2021/12/16 02:03:05;85006.00;0.28;147.68;0.00;0.00;0.62;;;;;10.40;1.00;;;;;;2285781;60;1412;-84
2021/12/16 02:10:34;112628.00;0.38;195.36;0.00;0.00;0.62;;;;;9.90;1.00;;;;;;2282063;60;1423;-84
2021/12/16 02:36:38;35825.00;0.12;62.66;0.00;0.00;0.62;;;;;10.30;1.00;;;;;;2268575;61;1915;-85
2021/12/16 02:41:33;281708.00;0.94;486.47;26485.00;0.09;46.50;;;;;10.10;1.00;;;;;;2518496;39;3568;31
2021/12/16 03:21:05;124102.00;0.41;215.16;0.00;0.00;0.62;;;;;9.50;1.00;;;;;;2286965;60;1400;-84
2021/12/16 04:22:44;144819.00;0.48;250.88;0.00;0.00;0.62;;;;;10.70;1.00;;;;;;2282495;61;1385;-81
2021/12/16 04:25:15;226042.00;0.75;390.74;0.00;0.00;0.62;;;;;10.80;1.00;;;;;;2273837;61;986;-83
2021/12/16 04:27:44;113223.00;0.38;196.39;0.00;0.00;0.62;;;;;11.00;1.00;;;;;;2273743;61;1008;-82
2021/12/16 04:30:14;152108.00;0.51;263.44;0.00;0.00;0.62;;;;;10.80;1.00;;;;;;2273120;61;1461;-84
2021/12/16 04:32:41;89715.00;0.30;155.82;0.00;0.00;0.62;;;;;10.80;1.00;;;;;;2276897;61;1017;-82
2021/12/16 04:35:09;50276.00;0.17;87.66;0.00;0.00;0.62;;;;;10.80;1.00;;;;;;2269401;61;1911;-83
2021/12/16 04:37:36;67266.00;0.22;117.04;0.00;0.00;0.62;;;;;11.20;1.00;;;;;;2272949;61;967;-83
2021/12/16 04:40:09;176196.00;0.59;304.94;0.00;0.00;0.62;;;;;11.30;1.00;;;;;;2276822;61;1347;-84
2021/12/16 04:42:37;368899.00;1.23;636.34;97463.00;0.32;169.19;;;;;11.20;1.00;;;;;;2276719;61;1003;-83
2021/12/16 04:45:04;114577.00;0.38;198.73;0.00;0.00;0.62;;;;;11.20;1.00;;;;;;2276794;61;949;-82
2021/12/16 04:47:32;21177.00;0.07;37.31;0.00;0.00;0.62;;;;;11.30;1.00;;;;;;2269701;61;990;-84
2021/12/16 04:50:00;394399.00;1.31;680.18;91735.00;0.31;159.30;;;;;11.30;1.00;;;;;;2276137;61;1392;-85
2021/12/16 04:52:27;28945.00;0.10;50.76;0.00;0.00;0.62;;;;;11.20;1.00;;;;;;2269458;61;1082;-85
2021/12/16 04:54:55;100363.00;0.33;174.20;0.00;0.00;0.62;;;;;11.20;1.00;;;;;;2276945;61;961;-82
2021/12/16 04:57:24;154176.00;0.51;267.00;0.00;0.00;0.62;;;;;11.20;1.00;;;;;;2267994;61;1943;-83
2021/12/16 04:59:51;1259.00;0.00;2.80;0.00;0.00;0.62;;;;;11.00;1.00;;;;;;2267517;61;1374;-84
2021/12/16 05:02:21;15751.00;0.05;27.91;0.00;0.00;0.62;;;;;11.10;1.00;;;;;;2261531;61;974;-83
2021/12/16 05:12:24;61547.00;0.21;107.15;0.00;0.00;0.62;;;;;11.10;1.00;;;;;;2286744;60;1405;-80
2021/12/16 05:14:52;227216.00;0.76;392.76;98826.00;0.33;171.55;;;;;10.60;1.00;;;;;;2274517;60;966;-84
2021/12/16 05:17:27;31195.00;0.10;54.65;0.00;0.00;0.62;;;;;10.80;1.00;;;;;;2285052;60;1942;-85
2021/12/16 05:19:56;103625.00;0.35;179.83;0.00;0.00;0.62;;;;;11.30;1.00;;;;;;2285040;60;1279;-84
2021/12/16 05:25:18;50043.00;0.17;87.26;0.00;0.00;0.62;;;;;11.50;1.00;;;;;;2276322;61;999;-84
2021/12/16 05:27:47;172523.00;0.58;298.61;0.00;0.00;0.62;;;;;11.30;1.00;;;;;;2266399;61;1143;-84
2021/12/16 05:30:15;70112.00;0.23;121.95;0.00;0.00;0.62;;;;;11.00;1.00;;;;;;2266203;61;1381;-84
2021/12/16 05:37:37;88563.00;0.30;153.83;0.00;0.00;0.62;;;;;11.10;1.00;;;;;;2282334;60;1907;-83
2021/12/16 05:40:05;297473.00;0.99;513.58;90489.00;0.30;157.15;;;;;11.40;1.00;;;;;;2273457;60;1411;-83
2021/12/16 05:45:01;66783.00;0.22;116.20;0.00;0.00;0.62;;;;;11.00;1.00;;;;;;2281791;61;1374;-83
2021/12/16 05:52:24;67950.00;0.23;118.22;0.00;0.00;0.62;;;;;11.20;1.00;;;;;;2282271;60;1274;-84
2021/12/16 05:54:51;267972.00;0.89;462.86;0.00;0.00;0.62;;;;;11.00;1.00;;;;;;2280803;60;1032;-84
2021/12/16 05:57:18;130218.00;0.43;225.71;0.00;0.00;0.62;;;;;11.00;1.00;;;;;;2280804;60;1935;-85
2021/12/16 06:27:28;0.00;0.00;0.62;0.00;0.00;0.62;;;;;10.50;1.00;;;;;;2285289;60;670;-87
2021/12/16 06:29:56;43576.00;0.15;76.07;0.00;0.00;0.62;;;;;10.30;1.00;;;;;;2285222;60;1385;-89
2021/12/16 06:32:25;23511.00;0.08;41.35;0.00;0.00;0.62;;;;;10.60;1.00;;;;;;2285168;60;920;-89
2021/12/16 06:34:52;7357.00;0.02;13.37;0.00;0.00;0.62;;;;;11.00;1.00;;;;;;2285251;60;1620;-89
2021/12/16 06:37:22;134450.00;0.45;233.00;0.00;0.00;0.62;;;;;11.30;1.00;;;;;;2285166;60;1972;-89
2021/12/16 06:39:49;141626.00;0.47;245.37;0.00;0.00;0.62;;;;;11.20;1.00;;;;;;2285202;60;1395;-87
2021/12/16 06:42:16;26683.00;0.09;46.84;0.00;0.00;0.62;;;;;11.20;1.00;;;;;;2274792;60;971;-88
2021/12/16 06:44:49;117336.00;0.39;203.49;0.00;0.00;0.62;;;;;10.80;1.00;;;;;;2285240;60;1027;-89
2021/12/16 06:47:20;39629.00;0.13;69.25;0.00;0.00;0.62;;;;;11.00;1.00;;;;;;2285208;60;1034;-88
2021/12/16 06:49:50;124556.00;0.42;215.94;0.00;0.00;0.62;;;;;11.10;1.00;;;;;;2285170;60;1572;-89
2021/12/16 06:52:22;0.00;0.00;0.62;0.00;0.00;0.62;;;;;11.30;1.00;;;;;;2285191;60;1295;-88
2021/12/16 06:55:04;115766.00;0.39;200.78;0.00;0.00;0.62;;;;;11.50;1.00;;;;;;2285144;60;1025;-90
2021/12/16 06:57:40;37042.00;0.12;64.77;0.00;0.00;0.62;;;;;11.40;1.00;;;;;;2285116;60;2007;-87
2021/12/16 07:00:13;0.00;0.00;0.62;0.00;0.00;0.62;;;;;11.70;1.00;;;;;;2285208;60;1400;-88
2021/12/16 07:02:54;88002.00;0.29;152.86;0.00;0.00;0.62;;;;;11.70;1.00;;;;;;2285126;60;1743;-88
2021/12/16 07:05:23;143130.00;0.48;247.97;0.00;0.00;0.62;;;;;11.30;1.00;;;;;;2285176;60;1116;-88
2021/12/16 07:07:51;98084.00;0.33;170.26;0.00;0.00;0.62;;;;;11.10;1.00;;;;;;2285137;60;1598;-89
2021/12/16 07:10:21;126086.00;0.42;218.58;41922.00;0.14;73.21;;;;;11.30;1.00;;;;;;2285039;60;1395;-89
2021/12/16 07:12:49;32715.00;0.11;57.28;0.00;0.00;0.62;;;;;11.30;1.00;;;;;;2285125;60;1265;-88
2021/12/16 07:15:20;49751.00;0.17;86.76;0.00;0.00;0.62;;;;;11.30;1.00;;;;;;2284884;60;1572;-88
2021/12/16 07:17:48;71101.00;0.24;123.66;0.00;0.00;0.62;;;;;11.40;1.00;;;;;;2285119;60;2002;-88
2021/12/16 07:20:20;46437.00;0.15;81.02;0.00;0.00;0.62;;;;;11.40;1.00;;;;;;2284999;60;1340;-88
2021/12/16 07:22:48;89713.00;0.30;155.81;0.00;0.00;0.62;;;;;11.70;1.00;;;;;;2285121;60;1017;-88
2021/12/16 07:25:15;143303.00;0.48;248.26;12365.00;0.04;22.05;;;;;11.50;1.00;;;;;;2284935;60;1719;-89
2021/12/16 07:27:44;123469.00;0.41;214.07;0.00;0.00;0.62;;;;;11.10;1.00;;;;;;2285024;60;1142;-86
2021/12/16 07:30:15;119767.00;0.40;207.68;0.00;0.00;0.62;;;;;10.90;1.00;;;;;;2285084;60;1443;-86
2021/12/16 07:32:42;166343.00;0.55;287.97;0.00;0.00;0.62;;;;;11.00;1.00;;;;;;2276397;61;962;-87
2021/12/16 07:35:13;61634.00;0.21;107.30;0.00;0.00;0.62;;;;;11.10;1.00;;;;;;2276399;61;1100;-87
2021/12/16 07:37:40;143801.00;0.48;249.12;0.00;0.00;0.62;;;;;11.10;1.00;;;;;;2276404;61;1915;-87
2021/12/16 07:40:09;25605.00;0.09;44.98;0.00;0.00;0.62;;;;;11.20;1.00;;;;;;2276396;61;1440;-87
2021/12/16 07:42:45;220721.00;0.74;381.58;0.00;0.00;0.62;;;;;11.30;1.00;;;;;;2269640;61;1029;-87
2021/12/16 07:45:15;13774.00;0.05;24.49;0.00;0.00;0.62;;;;;11.40;1.00;;;;;;2269682;61;1006;-87
2021/12/16 07:47:42;266847.00;0.89;460.92;31835.00;0.11;55.76;;;;;11.30;1.00;;;;;;2269659;61;1053;-87
2021/12/16 07:50:10;142010.00;0.47;246.04;0.00;0.00;0.62;;;;;11.10;1.00;;;;;;2278344;60;1327;-88
2021/12/16 07:52:40;150507.00;0.50;260.68;0.00;0.00;0.62;;;;;11.40;1.00;;;;;;2284999;60;1039;-86
2021/12/16 07:55:08;19819.00;0.07;34.96;0.00;0.00;0.62;;;;;10.80;1.00;;;;;;2284989;60;1083;-87
2021/12/16 07:57:36;60795.00;0.20;105.85;0.00;0.00;0.62;;;;;10.40;1.00;;;;;;2284892;60;1982;-88
2021/12/16 09:17:25;642887.00;2.14;1108.33;32769.00;0.11;57.38;;;;;10.90;1.00;;;;;;2506012;40;1982;31
2021/12/16 09:35:13;273653.00;0.91;472.62;0.00;0.00;0.62;;;;;10.10;1.00;;;;;;2273687;61;1303;-89
2021/12/16 10:36:13;481039.00;1.60;829.19;0.00;0.00;0.62;;;;;11.10;1.00;;;;;;2287281;61;1007;-91
2021/12/16 10:43:46;351433.00;1.17;606.32;0.00;0.00;0.62;;;;;10.20;1.00;;;;;;2283218;61;1270;-91
2021/12/16 10:56:08;1093929.00;3.65;1899.57;0.00;0.00;0.62;;;;;10.90;1.00;;;;;;2287555;61;1863;-92
2021/12/16 11:56:52;42822.00;0.14;74.77;0.00;0.00;0.62;;;;;11.80;1.00;;;;;;1693986;39;2430;-87
2021/12/16 12:22:17;411373.00;1.37;709.36;12860.00;0.04;22.90;;;;;10.40;1.00;;;;;;2426768;39;1918;31
2021/12/16 12:42:11;92186.00;0.31;160.08;0.00;0.00;0.62;;;;;10.10;1.00;;;;;;2515692;40;3420;31
2021/12/16 15:42:48;46647.00;0.16;81.39;0.00;0.00;0.62;;;;;10.90;1.00;;;;;;2283731;61;1287;-87
2021/12/16 15:45:18;13459.00;0.04;23.94;0.00;0.00;0.62;;;;;10.90;1.00;;;;;;2514893;39;3686;31
2021/12/16 16:00:12;251689.00;0.84;434.86;0.00;0.00;0.62;;;;;10.80;1.00;;;;;;2279187;61;1299;-84
2021/12/16 16:12:32;729903.00;2.43;1259.13;169456.00;0.56;293.33;;;;;10.60;1.00;;;;;;2523179;39;3505;31
2021/12/16 16:32:18;159767.00;0.53;276.64;0.00;0.00;0.62;;;;;10.80;1.00;;;;;;2282663;60;1443;-85
2021/12/16 16:37:24;38911.00;0.13;68.00;0.00;0.00;0.62;;;;;10.60;1.00;;;;;;2282529;61;1883;-85
2021/12/16 16:39:54;120285.00;0.40;208.57;0.00;0.00;0.62;;;;;10.10;1.00;;;;;;2272059;61;1064;-86
2021/12/16 16:44:55;255874.00;0.85;442.05;0.00;0.00;0.62;;;;;10.20;1.00;;;;;;2282457;61;1405;-85
2021/12/16 16:47:32;245784.00;0.82;424.70;0.00;0.00;0.62;;;;;10.10;1.00;;;;;;2276156;61;953;-84
2021/12/16 16:50:01;198964.00;0.66;344.14;0.00;0.00;0.62;;;;;10.30;1.00;;;;;;2268241;61;943;-84
2021/12/16 16:52:32;130027.00;0.43;225.38;0.00;0.00;0.62;;;;;10.40;1.00;;;;;;2264158;61;1380;-85
2021/12/16 16:55:07;154056.00;0.51;266.80;0.00;0.00;0.62;;;;;10.50;1.00;;;;;;2264042;61;1199;-84
2021/12/16 17:02:42;99659.00;0.33;172.98;0.00;0.00;0.62;;;;;10.40;1.00;;;;;;2287560;60;1193;-84
2021/12/16 17:05:13;210887.00;0.70;364.66;0.00;0.00;0.62;;;;;10.40;1.00;;;;;;2272221;61;1103;-86
2021/12/16 17:07:45;108324.00;0.36;187.94;0.00;0.00;0.62;;;;;10.40;1.00;;;;;;2272246;61;965;-85
2021/12/16 17:12:47;146720.00;0.49;254.15;0.00;0.00;0.62;;;;;10.40;1.00;;;;;;2282749;61;1398;-85
2021/12/16 17:15:31;249468.00;0.83;431.04;39404.00;0.13;68.86;;;;;10.30;1.00;;;;;;2276191;60;965;-85
2021/12/16 17:17:59;16005.00;0.05;28.35;0.00;0.00;0.62;;;;;10.20;1.00;;;;;;2272187;61;1994;-81
2021/12/16 17:20:27;375442.00;1.25;647.59;97115.00;0.32;168.59;;;;;10.30;1.00;;;;;;2272254;61;1290;-85
2021/12/16 17:22:55;52842.00;0.18;92.10;0.00;0.00;0.62;;;;;10.30;1.00;;;;;;2272399;61;1055;-84
2021/12/16 17:25:23;116581.00;0.39;202.18;0.00;0.00;0.62;;;;;10.30;1.00;;;;;;2272364;61;934;-86
2021/12/16 17:27:55;43760.00;0.15;76.39;0.00;0.00;0.62;;;;;10.10;1.00;;;;;;2264617;61;1025;-87
2021/12/16 17:32:53;229405.00;0.76;396.53;20987.00;0.07;36.98;;;;;10.40;1.00;;;;;;2286371;60;1313;-83
2021/12/16 17:35:24;73460.00;0.24;127.74;0.00;0.00;0.62;;;;;10.40;1.00;;;;;;2272113;61;948;-84
2021/12/16 17:37:58;113748.00;0.38;197.30;0.00;0.00;0.62;;;;;10.00;1.00;;;;;;2263907;61;1918;-83
2021/12/16 17:40:29;66998.00;0.22;116.57;0.00;0.00;0.62;;;;;9.80;1.00;;;;;;2264398;61;1471;-85
2021/12/16 17:42:59;142128.00;0.47;246.24;35577.00;0.12;62.24;;;;;9.70;1.00;;;;;;2264377;61;1789;-84
2021/12/16 17:45:30;13513.00;0.05;24.03;0.00;0.00;0.62;;;;;9.90;1.20;;;;;;2260622;61;1037;-84
2021/12/16 17:55:35;0.00;0.00;0.62;0.00;0.00;0.62;;;;;9.70;1.00;;;;;;2279298;61;889;-88
2021/12/16 18:00:34;24931.00;0.08;43.81;0.00;0.00;0.62;;;;;10.40;1.00;;;;;;2513645;55;3609;31
2021/12/16 18:05:36;22936.00;0.08;40.35;0.00;0.00;0.62;;;;;10.70;1.00;;;;;;2513868;55;3584;31
2021/12/16 18:08:03;58611.00;0.20;102.08;0.00;0.00;0.62;;;;;10.50;1.00;;;;;;2507906;55;4033;31
2021/12/16 18:12:58;131736.00;0.44;228.32;5486.00;0.02;10.13;;;;;10.00;1.00;;;;;;2514187;55;3639;31
2021/12/16 18:15:27;29315.00;0.10;51.40;0.00;0.00;0.62;;;;;10.00;1.00;;;;;;2507977;55;3997;31
2021/12/16 18:17:57;143854.00;0.48;249.21;0.00;0.00;0.62;;;;;10.60;1.00;;;;;;2509522;40;3877;31
2021/12/16 18:20:25;205265.00;0.68;354.99;7173.00;0.02;13.05;;;;;10.50;1.00;;;;;;2514357;40;4002;31
2021/12/16 18:22:54;203338.00;0.68;351.67;0.00;0.00;0.62;;;;;10.50;1.00;;;;;;2509999;40;3925;31
2021/12/16 18:44:04;1027533.00;3.43;1781.30;31746.00;0.11;55.61;;;;;9.80;1.00;;;;;;2282725;61;1241;-86
2021/12/16 19:33:35;881346.00;2.94;1523.38;0.00;0.00;0.62;;;;;8.60;1.00;;;;;;2282463;61;1198;-85
